Maersk Texas — KRPW — position and weather

sailwx.info

Track history (hours):
 
Tides and Currents Weather Stations Pressure Air Temp Water Temp Dewpoint Dewpoint Depression Visibility Wind Speed Wind Dir Waves Ship Positions

Maersk Texas

Owner: MAERSK LINE , LIMITED, Norfolk, VA. More information available from US FCC via Universal Licensing System and Coast Guard Vessel Documentation Center.

Last reported at 2016-Nov-24 17:09 UTC. Time now 2016-Dec-07 22:22 UTC.
Position N 10°41' W 061°43'.
Warning: this ship's position is 13 days out of date.

Length 232 m; draft 8.7 m.

Type: Cargo ship. MMSI: 368327000.

Date/timePositionNaut miles runAvg speedWind from/ knotsBaromVisibWave heightAir tempDewpointWater temp
2016-Nov-24 17:09N 10°41' W 061°43'3 5.2
2016-Nov-24 16:32N 10°40' W 061°40'4 4.4
2016-Nov-24 15:33N 10°40' W 061°36'2 0.1
2016-Nov-23 20:31N 10°41' W 061°34'0 0.0
2016-Nov-22 16:09N 10°41' W 061°34'0 0.0
2016-Nov-22 10:32N 10°41' W 061°34'0 0.0
2016-Nov-22 09:32N 10°41' W 061°34'0 0.0
2016-Nov-22 08:29N 10°41' W 061°34'0 0.0
2016-Nov-22 07:32N 10°41' W 061°34'0 0.0
2016-Nov-22 05:32N 10°41' W 061°34'0 0.0
2016-Nov-22 04:32N 10°41' W 061°34'0 0.0
2016-Nov-22 03:32N 10°41' W 061°34'0 0.0
2016-Nov-22 02:32N 10°41' W 061°34'0 0.0
2016-Nov-21 23:32N 10°41' W 061°34'0 0.1
2016-Nov-21 21:33N 10°41' W 061°34'0 0.0
2016-Nov-21 17:32N 10°41' W 061°34'1 0.2
2016-Nov-21 14:33N 10°40' W 061°35'4 4.5
2016-Nov-21 13:34N 10°40' W 061°39'  
Track history (hours):
 
Tides and Currents Weather Stations Pressure Air Temp Water Temp Dewpoint Dewpoint Depression Visibility Wind Speed Wind Dir Waves Ship Positions

Maersk Texas

Owner: MAERSK LINE , LIMITED, Norfolk, VA. More information available from US FCC via Universal Licensing System and Coast Guard Vessel Documentation Center.

Last reported at 2016-Nov-24 17:09 UTC. Time now 2016-Dec-07 22:22 UTC.
Position N 10°41' W 061°43'.
Warning: this ship's position is 13 days out of date.

Length 232 m; draft 8.7 m.

Type: Cargo ship. MMSI: 368327000.

Date/timePositionNaut miles runAvg speedWind from/ knotsBaromVisibWave heightAir tempDewpointWater temp
2016-Nov-24 17:09N 10°41' W 061°43'3 5.2
2016-Nov-24 16:32N 10°40' W 061°40'4 4.4
2016-Nov-24 15:33N 10°40' W 061°36'2 0.1
2016-Nov-23 20:31N 10°41' W 061°34'0 0.0
2016-Nov-22 16:09N 10°41' W 061°34'0 0.0
2016-Nov-22 10:32N 10°41' W 061°34'0 0.0
2016-Nov-22 09:32N 10°41' W 061°34'0 0.0
2016-Nov-22 08:29N 10°41' W 061°34'0 0.0
2016-Nov-22 07:32N 10°41' W 061°34'0 0.0
2016-Nov-22 05:32N 10°41' W 061°34'0 0.0
2016-Nov-22 04:32N 10°41' W 061°34'0 0.0
2016-Nov-22 03:32N 10°41' W 061°34'0 0.0
2016-Nov-22 02:32N 10°41' W 061°34'0 0.0
2016-Nov-21 23:32N 10°41' W 061°34'0 0.1
2016-Nov-21 21:33N 10°41' W 061°34'0 0.0
2016-Nov-21 17:32N 10°41' W 061°34'1 0.2
2016-Nov-21 14:33N 10°40' W 061°35'4 4.5
2016-Nov-21 13:34N 10°40' W 061°39'  

Dump ship's entire track history